Time;durP1;ratioP1;P1;durP2;ratioP2;P2;SDS_P1;SDS_P2;PMS_P1;PMS_P2;Temp;Humidity;BMP_temperature;BMP_pressure;BME280_temperature;BME280_humidity;BME280_pressure;Samples;Min_cycle;Max_cycle;Signal;HPM_P1;HPM_P2
2023/01/05 00:01:28;;;;;;;;;6.00;3.50;;;;;11.57;80.16;99741.78;5057283;28;8850;-59
2023/01/05 00:03:56;;;;;;;;;4.50;3.00;;;;;11.50;80.38;99746.81;5038609;28;8917;-59
2023/01/05 00:06:24;;;;;;;;;3.50;3.25;;;;;11.52;80.34;99750.19;5037198;28;8829;-59
2023/01/05 00:08:52;;;;;;;;;3.00;3.00;;;;;11.54;80.09;99747.38;5037422;28;8910;-58
2023/01/05 00:22:37;;;;;;;;;6.25;3.75;;;;;11.67;79.52;99782.72;5045453;28;8834;-57
2023/01/05 00:25:05;;;;;;;;;3.50;2.50;;;;;11.68;79.88;99781.75;5057129;28;8834;-57
2023/01/05 00:27:39;;;;;;;;;3.00;1.50;;;;;11.68;79.64;99793.25;5055968;28;8831;-60
2023/01/05 00:30:07;;;;;;;;;1.00;1.00;;;;;11.69;79.69;99772.75;5015999;28;8861;-58
2023/01/05 00:32:35;;;;;;;;;1.00;1.00;;;;;11.69;79.73;99773.59;5016632;28;8982;-59
2023/01/05 00:35:02;;;;;;;;;4.00;3.50;;;;;11.70;79.05;99767.31;5016938;28;8830;-59
2023/01/05 00:37:30;;;;;;;;;3.00;1.50;;;;;11.71;79.10;99773.47;5017046;28;8901;-59
2023/01/05 00:39:58;;;;;;;;;3.50;2.25;;;;;11.71;79.37;99777.00;5017540;28;8860;-58
2023/01/05 00:42:26;;;;;;;;;3.50;2.00;;;;;11.71;79.35;99771.66;5017626;28;8881;-59
2023/01/05 00:44:54;;;;;;;;;3.00;3.00;;;;;11.72;79.38;99776.00;5025968;28;8833;-58
2023/01/05 00:47:21;;;;;;;;;3.00;3.00;;;;;11.74;79.04;99776.72;5037341;28;8843;-59
2023/01/05 00:49:49;;;;;;;;;1.50;1.50;;;;;11.77;79.35;99779.13;5037504;28;8839;-59
2023/01/05 00:52:17;;;;;;;;;3.00;2.00;;;;;11.78;78.79;99779.97;5050862;28;8839;-59
2023/01/05 00:54:45;;;;;;;;;1.00;1.00;;;;;11.79;78.60;99778.97;5057162;28;8834;-59
2023/01/05 00:57:12;;;;;;;;;1.00;1.00;;;;;11.79;78.97;99779.84;5057039;28;8831;-60
2023/01/05 00:59:40;;;;;;;;;4.00;4.00;;;;;11.78;78.51;99780.81;5040546;28;8820;-59
2023/01/05 01:02:08;;;;;;;;;3.00;3.00;;;;;11.79;78.41;99789.66;5037170;28;8854;-59
2023/01/05 01:04:37;;;;;;;;;3.00;3.00;;;;;11.79;78.79;99785.19;5036926;28;8913;-59
2023/01/05 01:07:04;;;;;;;;;4.00;1.50;;;;;11.80;78.79;99773.53;5037484;28;8821;-60
2023/01/05 01:09:32;;;;;;;;;3.25;3.00;;;;;11.78;78.87;99782.63;5037176;28;8851;-59
2023/01/05 01:12:00;;;;;;;;;8.25;3.00;;;;;11.73;78.72;99782.19;5036682;28;8829;-59
2023/01/05 01:14:28;;;;;;;;;1.00;1.00;;;;;11.58;78.99;99781.69;5036615;28;8852;-59
2023/01/05 01:16:56;;;;;;;;;2.50;2.50;;;;;11.41;79.77;99787.59;5036411;28;8895;-59
2023/01/05 01:19:24;;;;;;;;;3.75;1.00;;;;;11.27;79.16;99779.94;5036453;28;8816;-59
2023/01/05 01:21:51;;;;;;;;;2.00;2.00;;;;;11.20;80.00;99776.09;5046345;28;9742;-57
2023/01/05 01:24:19;;;;;;;;;3.00;2.50;;;;;11.19;80.41;99776.22;5054532;28;8836;-59
2023/01/05 01:26:47;;;;;;;;;7.25;6.50;;;;;11.20;80.17;99788.56;5036370;28;8904;-60
2023/01/05 01:29:16;;;;;;;;;3.25;3.25;;;;;11.25;80.04;99779.22;5037139;28;8859;-59
2023/01/05 01:31:43;;;;;;;;;3.25;3.25;;;;;11.27;79.55;99777.25;5036806;28;8832;-59
2023/01/05 01:34:11;;;;;;;;;5.00;2.50;;;;;11.29;80.00;99774.47;5036688;28;8843;-59
2023/01/05 01:36:39;;;;;;;;;1.00;1.00;;;;;11.31;79.65;99785.84;5036503;28;8840;-59
2023/01/05 01:39:07;;;;;;;;;3.00;3.00;;;;;11.35;79.54;99787.25;5036777;28;8821;-59
2023/01/05 01:41:35;;;;;;;;;3.75;3.25;;;;;11.37;79.36;99788.81;5036423;28;8824;-59
2023/01/05 01:44:03;;;;;;;;;0.25;0.00;;;;;11.40;79.43;99785.91;5036523;28;8841;-59
2023/01/05 01:46:31;;;;;;;;;7.00;4.00;;;;;11.42;79.21;99785.75;5036205;28;8840;-59
2023/01/05 01:48:58;;;;;;;;;3.00;3.00;;;;;11.41;79.14;99792.94;5036434;28;8864;-59
2023/01/05 01:51:26;;;;;;;;;3.00;3.00;;;;;11.41;79.33;99795.59;5042491;28;8806;-60
2023/01/05 01:53:54;;;;;;;;;2.50;1.00;;;;;11.43;78.93;99820.31;5056718;28;8842;-60
2023/01/05 01:56:22;;;;;;;;;4.50;3.75;;;;;11.43;78.99;99809.63;5037187;28;8959;-59
2023/01/05 01:58:49;;;;;;;;;3.00;2.00;;;;;11.45;78.63;99822.84;5036250;28;8829;-60
2023/01/05 02:01:17;;;;;;;;;4.50;3.25;;;;;11.44;78.78;99814.00;5036281;28;8840;-59
2023/01/05 02:03:45;;;;;;;;;3.50;2.50;;;;;11.46;78.95;99824.53;5036261;28;8812;-59
2023/01/05 02:06:13;;;;;;;;;4.50;4.00;;;;;11.46;79.36;99812.03;5036498;28;8879;-59
2023/01/05 02:08:40;;;;;;;;;3.50;3.50;;;;;11.48;79.30;99820.78;5036342;28;8851;-59
2023/01/05 02:11:10;;;;;;;;;5.00;5.00;;;;;11.46;78.94;99812.03;5035830;28;8837;-59
2023/01/05 02:13:38;;;;;;;;;3.50;3.50;;;;;11.46;78.98;99814.69;5035561;28;8829;-59
2023/01/05 02:16:05;;;;;;;;;1.00;0.00;;;;;11.44;79.11;99816.66;5035936;28;8874;-59
2023/01/05 02:18:33;;;;;;;;;3.75;3.75;;;;;11.43;78.76;99822.97;5035869;28;8848;-59
2023/01/05 02:21:01;;;;;;;;;10.50;6.00;;;;;11.42;79.18;99823.94;5038170;28;8845;-59
2023/01/05 02:23:28;;;;;;;;;3.00;3.00;;;;;11.42;78.73;99826.63;5055434;28;8838;-59
2023/01/05 02:25:56;;;;;;;;;3.67;3.00;;;;;11.41;79.37;99822.25;5040937;28;8816;-59
2023/01/05 02:28:23;;;;;;;;;7.50;5.25;;;;;11.41;79.34;99832.94;5035826;28;8982;-59
2023/01/05 02:30:52;;;;;;;;;2.50;1.00;;;;;11.40;79.07;99823.25;5036178;28;8832;-59
2023/01/05 02:33:21;;;;;;;;;4.50;2.00;;;;;11.40;78.95;99820.56;5035981;28;8849;-59
2023/01/05 02:35:48;;;;;;;;;6.00;4.00;;;;;11.41;79.27;99824.94;5035861;28;8867;-59
2023/01/05 02:38:16;;;;;;;;;4.00;3.00;;;;;11.39;79.23;99829.53;5035805;28;8824;-59
2023/01/05 02:40:43;;;;;;;;;5.00;4.00;;;;;11.39;78.67;99829.53;5035799;28;8894;-59
2023/01/05 02:43:11;;;;;;;;;2.00;1.00;;;;;11.38;79.02;99829.69;5035908;28;8859;-59
2023/01/05 02:45:39;;;;;;;;;3.00;3.00;;;;;11.37;79.23;99836.81;5035201;28;8859;-59
2023/01/05 02:48:07;;;;;;;;;6.25;5.00;;;;;11.37;79.23;99830.66;5035225;28;8840;-59
2023/01/05 02:50:35;;;;;;;;;4.00;4.00;;;;;11.36;79.64;99834.31;5034566;28;8817;-59
2023/01/05 02:53:03;;;;;;;;;3.00;3.00;;;;;11.35;79.21;99828.09;5055020;28;8842;-59
2023/01/05 02:55:31;;;;;;;;;6.00;5.50;;;;;11.35;79.06;99838.78;5048212;28;8829;-59
2023/01/05 02:57:59;;;;;;;;;5.00;4.00;;;;;11.35;79.16;99846.78;5039439;28;8836;-59
2023/01/05 03:00:27;;;;;;;;;4.00;4.00;;;;;11.36;79.20;99840.47;5039940;28;9479;-59
2023/01/05 03:02:54;;;;;;;;;7.50;5.50;;;;;11.34;78.98;99834.41;5039308;28;8824;-59
2023/01/05 03:05:22;;;;;;;;;4.00;4.00;;;;;11.34;79.61;99831.75;5039258;28;8833;-59
2023/01/05 03:07:50;;;;;;;;;7.75;6.00;;;;;11.33;78.74;99834.53;5039316;28;8816;-59
2023/01/05 03:15:49;;;;;;;;;2.00;2.00;;;;;11.25;79.27;99842.34;5039016;28;8866;-59
2023/01/05 03:18:17;;;;;;;;;3.75;3.50;;;;;11.19;79.42;99843.69;5038941;28;8876;-58
2023/01/05 03:20:44;;;;;;;;;4.50;3.25;;;;;11.15;79.18;99847.59;5039463;28;8833;-59
2023/01/05 03:36:59;;;;;;;;;6.00;4.00;;;;;11.17;78.72;99866.13;5018844;28;8835;-59
2023/01/05 03:39:27;;;;;;;;;6.75;5.00;;;;;11.16;78.79;99862.59;5019115;28;8830;-58
2023/01/05 03:41:54;;;;;;;;;2.25;2.25;;;;;11.15;79.32;99863.56;5019014;28;8818;-59
2023/01/05 03:44:22;;;;;;;;;3.75;3.25;;;;;11.16;79.49;99865.25;5018611;28;8839;-59
2023/01/05 03:46:50;;;;;;;;;1.50;1.00;;;;;11.16;79.02;99859.94;5018663;28;9504;-59
2023/01/05 03:49:17;;;;;;;;;5.00;4.50;;;;;11.18;78.98;99862.47;5018550;28;8916;-59
2023/01/05 03:51:45;;;;;;;;;5.00;3.50;;;;;11.18;78.93;99859.81;5036313;28;8814;-59
2023/01/05 03:54:13;;;;;;;;;1.50;1.50;;;;;11.18;78.95;99868.66;5058427;28;8845;-59
2023/01/05 03:56:41;;;;;;;;;4.50;3.25;;;;;11.14;79.34;99859.22;5038267;28;8847;-58
2023/01/05 03:59:09;;;;;;;;;3.00;3.00;;;;;11.00;79.21;99864.03;5038546;28;9534;-59
2023/01/05 04:01:37;;;;;;;;;2.00;2.00;;;;;10.87;79.79;99863.31;5038616;28;8832;-57
2023/01/05 04:04:05;;;;;;;;;1.50;1.50;;;;;10.77;80.11;99865.88;5038634;28;8821;-59
2023/01/05 04:06:32;;;;;;;;;3.50;3.50;;;;;10.73;79.94;99869.78;5037067;28;8848;-60
2023/01/05 04:09:00;;;;;;;;;3.00;3.00;;;;;10.75;80.14;99870.50;5038269;28;8847;-58
2023/01/05 04:11:28;;;;;;;;;3.00;3.00;;;;;10.79;80.05;99874.63;5036979;28;8841;-57
2023/01/05 04:13:55;;;;;;;;;3.00;3.00;;;;;10.83;79.65;99878.72;5037893;28;8817;-59
2023/01/05 04:16:24;;;;;;;;;4.50;3.25;;;;;10.86;79.46;99873.13;5037829;28;8836;-59
2023/01/05 04:18:51;;;;;;;;;2.00;1.00;;;;;10.89;79.47;99872.03;5037768;28;8840;-59
2023/01/05 04:21:19;;;;;;;;;6.25;4.00;;;;;10.91;79.67;99878.94;5043240;28;8841;-60
2023/01/05 04:23:47;;;;;;;;;3.00;3.00;;;;;10.92;79.54;99877.94;5039632;28;8820;-59
2023/01/05 04:26:14;;;;;;;;;4.00;3.00;;;;;10.90;79.42;99874.56;5038127;28;8870;-58
2023/01/05 04:28:42;;;;;;;;;5.00;4.50;;;;;10.85;79.61;99874.09;5037970;28;8839;-58
2023/01/05 04:31:10;;;;;;;;;5.25;4.00;;;;;10.78;80.08;99878.22;5037713;28;8850;-59
2023/01/05 04:33:38;;;;;;;;;0.75;0.00;;;;;10.76;80.12;99885.50;5037663;28;8816;-57
2023/01/05 04:36:06;;;;;;;;;4.00;4.00;;;;;10.74;79.85;99899.91;5037854;28;8828;-59
2023/01/05 04:38:34;;;;;;;;;3.25;3.00;;;;;10.73;79.63;99877.78;5037135;28;8932;-58
2023/01/05 04:41:02;;;;;;;;;7.50;5.50;;;;;10.76;79.99;99885.50;5036625;28;9518;-59
2023/01/05 04:43:30;;;;;;;;;6.00;5.00;;;;;10.80;79.61;99889.63;5037017;28;8835;-60
2023/01/05 04:45:58;;;;;;;;;3.75;3.25;;;;;10.82;79.87;99881.50;5035938;28;8927;-57
2023/01/05 04:48:26;;;;;;;;;3.50;3.00;;;;;10.85;79.83;99886.59;5036207;28;8908;-59
2023/01/05 04:50:54;;;;;;;;;3.50;3.00;;;;;10.87;79.72;99889.97;5036296;28;9524;-58
2023/01/05 04:53:22;;;;;;;;;3.00;3.00;;;;;10.89;79.19;99888.00;5035938;28;8848;-59
2023/01/05 04:55:50;;;;;;;;;7.50;6.25;;;;;10.91;79.69;99892.25;5036530;28;8939;-59
2023/01/05 04:58:17;;;;;;;;;3.00;3.00;;;;;10.89;79.47;99883.53;5036422;28;8918;-59
2023/01/05 05:00:45;;;;;;;;;3.00;1.00;;;;;10.81;79.86;99887.78;5036793;28;8847;-58
2023/01/05 05:03:13;;;;;;;;;3.75;3.00;;;;;10.74;80.40;99894.59;5037053;28;9518;-59
2023/01/05 05:05:42;;;;;;;;;4.00;4.00;;;;;10.71;80.09;99892.19;5036535;28;8934;-59
2023/01/05 05:08:09;;;;;;;;;3.75;3.00;;;;;10.70;80.09;99899.31;5036796;28;8855;-58
2023/01/05 05:10:37;;;;;;;;;3.00;3.00;;;;;10.70;80.72;99899.31;5036784;28;8821;-58
2023/01/05 05:13:05;;;;;;;;;2.75;2.75;;;;;10.73;80.49;99912.41;5036914;28;8828;-59
2023/01/05 05:15:32;;;;;;;;;5.00;4.50;;;;;10.77;80.37;99905.00;5036315;28;8828;-57
2023/01/05 05:18:00;;;;;;;;;4.00;3.75;;;;;10.80;79.85;99926.91;5036323;28;8856;-58
2023/01/05 05:20:35;;;;;;;;;4.00;4.00;;;;;10.85;80.01;99914.06;5036764;28;8816;-59
2023/01/05 05:23:03;;;;;;;;;4.00;3.25;;;;;10.88;79.54;99913.81;5036255;28;8839;-57
2023/01/05 05:25:30;;;;;;;;;1.00;1.00;;;;;10.90;79.59;99911.88;5036492;28;9717;-59
2023/01/05 05:28:00;;;;;;;;;3.25;3.25;;;;;10.91;79.31;99913.56;5036318;28;8829;-57
2023/01/05 05:30:28;;;;;;;;;5.50;3.50;;;;;10.90;80.08;99916.34;5035950;28;8835;-59
2023/01/05 05:32:55;;;;;;;;;4.00;3.00;;;;;10.86;79.41;99917.56;5035828;28;8832;-57
2023/01/05 05:35:23;;;;;;;;;6.25;5.50;;;;;10.86;79.86;99930.91;5035903;28;8832;-57
2023/01/05 05:37:51;;;;;;;;;3.50;3.25;;;;;10.85;79.71;99924.72;5035986;28;8821;-57
2023/01/05 05:40:23;;;;;;;;;5.00;3.00;;;;;10.88;79.80;99931.63;5036048;28;8846;-59
2023/01/05 05:42:51;;;;;;;;;4.00;4.00;;;;;10.89;79.98;99942.16;5036065;28;9498;-59
2023/01/05 05:45:18;;;;;;;;;2.00;2.00;;;;;10.93;79.48;99942.75;5035737;28;8839;-59
2023/01/05 05:47:46;;;;;;;;;6.00;4.00;;;;;10.92;80.13;99938.41;5035907;28;8848;-58
2023/01/05 05:50:14;;;;;;;;;5.00;3.25;;;;;10.89;79.73;99944.81;5036309;28;8835;-59
2023/01/05 05:52:42;;;;;;;;;4.50;3.50;;;;;10.81;80.35;99949.91;5035244;28;8824;-59
2023/01/05 05:55:10;;;;;;;;;7.25;5.75;;;;;10.75;80.17;99955.72;5035859;28;8906;-59
2023/01/05 05:57:37;;;;;;;;;5.25;5.25;;;;;10.68;79.90;99959.00;5035490;28;8824;-59
2023/01/05 06:00:05;;;;;;;;;6.00;5.50;;;;;10.57;80.45;99957.22;5035199;28;8844;-60
2023/01/05 06:02:33;;;;;;;;;6.25;4.00;;;;;10.49;80.98;99959.63;5034463;28;8855;-60
2023/01/05 06:05:00;;;;;;;;;4.00;4.00;;;;;10.40;80.94;99968.31;5033822;28;8917;-57
2023/01/05 06:07:28;;;;;;;;;3.50;3.50;;;;;10.32;81.21;99973.41;5033823;28;8828;-60
2023/01/05 06:09:56;;;;;;;;;3.00;3.00;;;;;10.25;81.88;99974.84;5033488;28;9572;-59
2023/01/05 06:12:24;;;;;;;;;4.00;3.50;;;;;10.18;81.75;99973.63;5033082;28;9878;-60
2023/01/05 06:14:52;;;;;;;;;6.75;6.00;;;;;10.13;81.93;99970.50;5032552;28;8946;-60
2023/01/05 06:17:20;;;;;;;;;3.25;3.00;;;;;10.09;82.38;99969.00;5033124;28;9547;-59
2023/01/05 06:19:48;;;;;;;;;3.00;2.50;;;;;10.06;81.92;99979.91;5033777;28;8841;-59
2023/01/05 06:22:16;;;;;;;;;7.00;6.00;;;;;10.04;81.99;99991.63;5034448;28;8827;-58
2023/01/05 06:24:44;;;;;;;;;3.75;3.75;;;;;10.01;82.06;99982.03;5034599;28;8824;-60
2023/01/05 06:27:11;;;;;;;;;6.00;4.00;;;;;10.01;82.25;99998.00;5034951;28;8824;-60
2023/01/05 06:29:39;;;;;;;;;6.00;6.00;;;;;9.99;81.94;99997.25;5034576;28;8820;-60
2023/01/05 06:32:07;;;;;;;;;7.00;4.00;;;;;9.97;82.59;99993.03;5035330;28;8902;-60
2023/01/05 06:34:35;;;;;;;;;6.00;6.00;;;;;9.94;82.92;99998.59;5035053;28;9556;-60
2023/01/05 06:37:05;;;;;;;;;7.00;6.50;;;;;9.92;82.38;99997.84;5034888;28;8966;-59
2023/01/05 06:39:33;;;;;;;;;7.50;7.25;;;;;9.91;82.50;100004.97;5034962;28;8848;-60
2023/01/05 06:42:00;;;;;;;;;5.00;3.25;;;;;9.91;82.67;100004.97;5035111;28;9536;-59
2023/01/05 06:44:28;;;;;;;;;6.00;6.00;;;;;9.90;82.53;100003.28;5034550;28;9533;-59
2023/01/05 06:46:56;;;;;;;;;3.50;3.00;;;;;9.89;82.80;100006.91;5034276;28;8852;-59
2023/01/05 06:49:23;;;;;;;;;6.00;5.00;;;;;9.88;82.22;100007.84;5033804;28;8840;-59
2023/01/05 06:51:51;;;;;;;;;6.00;5.00;;;;;9.88;82.83;100021.16;5033587;28;8824;-60
2023/01/05 06:54:19;;;;;;;;;4.50;4.00;;;;;9.87;82.87;100019.47;5033404;28;8829;-58
2023/01/05 06:56:47;;;;;;;;;5.25;3.75;;;;;9.88;82.89;100022.97;5033893;28;8862;-59
2023/01/05 06:59:15;;;;;;;;;3.50;3.50;;;;;9.88;82.61;100020.31;5033795;28;8861;-60
2023/01/05 07:01:43;;;;;;;;;8.00;6.75;;;;;9.88;83.05;100030.97;5033694;28;8829;-59
2023/01/05 07:04:11;;;;;;;;;7.25;6.50;;;;;9.88;82.53;100026.47;5033982;28;8848;-60
2023/01/05 07:06:39;;;;;;;;;6.25;5.00;;;;;9.89;82.61;100022.00;5034431;28;8825;-60
2023/01/05 07:09:07;;;;;;;;;7.50;7.50;;;;;9.89;82.97;100030.84;5034214;28;8902;-58
2023/01/05 07:11:35;;;;;;;;;7.00;7.00;;;;;9.89;83.05;100028.19;5033850;28;8848;-58
2023/01/05 07:14:02;;;;;;;;;8.00;8.00;;;;;9.89;82.83;100030.84;5033938;28;8855;-59
2023/01/05 07:16:30;;;;;;;;;9.50;6.50;;;;;9.90;82.87;100043.19;5033562;28;8844;-59
2023/01/05 07:18:58;;;;;;;;;4.00;3.00;;;;;9.90;82.57;100043.19;5032845;28;8923;-58
2023/01/05 07:21:26;;;;;;;;;6.75;6.25;;;;;9.91;82.91;100052.00;5033866;28;9039;-60
2023/01/05 07:23:54;;;;;;;;;6.25;6.25;;;;;9.91;82.75;100046.69;5033017;28;8852;-58
2023/01/05 07:26:21;;;;;;;;;6.00;6.00;;;;;9.92;83.23;100043.03;5032889;28;8847;-59
2023/01/05 07:28:49;;;;;;;;;8.25;8.25;;;;;9.92;83.16;100051.91;5033179;28;8836;-59
2023/01/05 07:31:17;;;;;;;;;5.00;5.00;;;;;9.92;82.80;100057.22;5032709;28;8841;-58
2023/01/05 07:33:45;;;;;;;;;6.00;6.00;;;;;9.91;83.21;100058.19;5034121;28;8825;-57
2023/01/05 07:36:13;;;;;;;;;3.00;3.00;;;;;9.92;83.14;100059.88;5033353;28;8962;-59
2023/01/05 07:38:41;;;;;;;;;6.50;5.00;;;;;9.91;83.13;100052.84;5033416;28;8902;-59
2023/01/05 07:41:09;;;;;;;;;6.00;6.00;;;;;9.91;83.21;100067.97;5035882;28;8848;-59
2023/01/05 07:43:36;;;;;;;;;6.75;6.00;;;;;9.90;83.41;100067.13;5036209;28;8984;-59
2023/01/05 07:46:05;;;;;;;;;7.50;7.50;;;;;9.90;83.57;100072.44;5034620;28;8842;-60
2023/01/05 07:48:33;;;;;;;;;7.00;6.25;;;;;9.91;83.41;100074.13;5034332;28;8845;-59
2023/01/05 07:51:01;;;;;;;;;6.00;6.00;;;;;9.89;83.32;100076.06;5037410;28;8836;-59
2023/01/05 07:53:29;;;;;;;;;4.50;4.50;;;;;9.89;83.44;100073.41;5054647;28;8845;-59
2023/01/05 07:55:57;;;;;;;;;8.50;6.00;;;;;9.89;83.53;100080.53;5054924;28;8972;-57
2023/01/05 07:58:25;;;;;;;;;3.75;3.75;;;;;9.90;83.49;100083.09;5056047;28;8865;-59
2023/01/05 08:00:53;;;;;;;;;6.75;5.00;;;;;9.91;83.39;100092.75;5055827;28;8834;-59
2023/01/05 08:03:21;;;;;;;;;7.00;6.75;;;;;9.91;83.35;100084.78;5056939;28;8826;-60
2023/01/05 08:05:49;;;;;;;;;2.50;2.50;;;;;9.90;83.11;100091.06;5057002;28;8845;-59
2023/01/05 08:08:17;;;;;;;;;5.00;3.75;;;;;9.91;83.43;100099.88;5057651;28;8846;-60
2023/01/05 08:10:50;;;;;;;;;5.50;5.00;;;;;9.89;83.23;100107.13;5057851;28;8965;-60
2023/01/05 08:16:03;;;;;;;;;6.25;6.00;;;;;9.89;83.53;100102.66;5052107;28;8963;-58
2023/01/05 08:18:31;;;;;;;;;6.75;6.75;;;;;9.88;83.75;100110.75;5035645;28;8849;-60
2023/01/05 08:21:03;;;;;;;;;3.00;3.00;;;;;9.89;83.36;100118.63;5038255;28;8848;-60
2023/01/05 08:23:31;;;;;;;;;5.75;5.50;;;;;9.89;83.52;100110.66;5055385;28;8830;-60
2023/01/05 08:25:58;;;;;;;;;6.25;5.50;;;;;9.89;83.31;100110.66;5055119;28;8853;-59
2023/01/05 08:28:26;;;;;;;;;1.50;1.50;;;;;9.89;83.62;100118.63;5050030;28;9191;-59
2023/01/05 08:31:02;;;;;;;;;10.50;9.25;;;;;9.90;84.23;100115.00;5023860;28;8938;-59
2023/01/05 08:33:30;;;;;;;;;6.00;5.50;;;;;9.92;83.38;100113.06;5034182;28;8852;-59
2023/01/05 08:35:58;;;;;;;;;11.50;8.00;;;;;9.95;83.51;100112.00;5035251;28;9777;-60
2023/01/05 08:38:26;;;;;;;;;9.00;6.00;;;;;9.97;83.84;100126.88;5034646;28;8845;-59
2023/01/05 08:40:53;;;;;;;;;4.75;4.75;;;;;9.95;83.78;100118.16;5035157;28;8855;-59
2023/01/05 08:43:21;;;;;;;;;9.25;8.75;;;;;9.96;84.14;100119.00;5035181;28;8883;-59
2023/01/05 08:45:50;;;;;;;;;7.00;6.25;;;;;9.95;83.84;100123.47;5035019;28;8898;-59
2023/01/05 08:48:18;;;;;;;;;9.50;9.25;;;;;9.95;83.79;100118.16;5034844;28;8868;-58
2023/01/05 08:50:46;;;;;;;;;6.00;4.00;;;;;9.97;83.86;100121.56;5035794;28;8820;-59
2023/01/05 08:53:14;;;;;;;;;6.75;5.50;;;;;9.98;83.34;100125.06;5054423;28;8842;-58
2023/01/05 08:55:41;;;;;;;;;9.25;8.50;;;;;9.98;83.70;100136.56;5055304;28;8854;-59
2023/01/05 08:58:10;;;;;;;;;6.50;6.50;;;;;10.00;83.75;100137.28;5052916;28;8842;-56
2023/01/05 09:00:38;;;;;;;;;13.00;6.25;;;;;10.04;83.86;100144.13;5034306;28;8868;-59
2023/01/05 09:03:05;;;;;;;;;7.00;7.00;;;;;10.10;83.66;100146.31;5033799;28;8844;-59
2023/01/05 09:05:34;;;;;;;;;6.00;6.00;;;;;10.15;83.59;100145.97;5034556;28;8868;-57
2023/01/05 09:08:04;;;;;;;;;7.50;6.00;;;;;10.18;83.70;100149.25;5034637;28;8848;-59
2023/01/05 09:10:32;;;;;;;;;10.00;6.00;;;;;10.23;83.19;100163.06;5035200;28;8902;-57
2023/01/05 09:13:00;;;;;;;;;9.00;7.00;;;;;10.29;83.03;100156.44;5035463;28;8848;-59
2023/01/05 09:15:28;;;;;;;;;8.75;8.00;;;;;10.33;83.48;100161.41;5035718;28;8836;-59
2023/01/05 09:17:56;;;;;;;;;6.25;6.25;;;;;10.37;83.48;100162.88;5035550;28;8864;-59
2023/01/05 09:20:24;;;;;;;;;6.00;5.50;;;;;10.41;82.60;100152.84;5036345;28;8848;-59
2023/01/05 09:22:52;;;;;;;;;8.00;7.00;;;;;10.46;83.16;100161.34;5046565;28;8850;-58
2023/01/05 09:25:20;;;;;;;;;6.00;4.00;;;;;10.50;82.81;100169.00;5035530;28;8840;-58
2023/01/05 09:27:49;;;;;;;;;7.50;6.75;;;;;10.54;82.81;100173.09;5035110;28;8816;-59
2023/01/05 09:30:17;;;;;;;;;5.50;4.00;;;;;10.57;82.99;100180.00;5035671;28;8840;-59
2023/01/05 09:32:45;;;;;;;;;5.50;5.00;;;;;10.58;82.51;100174.59;5035522;28;8854;-59
2023/01/05 09:35:13;;;;;;;;;6.25;6.00;;;;;10.61;82.57;100182.31;5034965;28;8824;-57
2023/01/05 09:37:42;;;;;;;;;10.25;6.50;;;;;10.65;82.28;100190.94;5034726;28;8841;-59
2023/01/05 09:40:10;;;;;;;;;6.25;5.50;;;;;10.68;82.68;100191.56;5034293;28;8852;-59
2023/01/05 09:42:38;;;;;;;;;10.50;9.25;;;;;10.72;82.62;100193.03;5034198;28;8836;-58
2023/01/05 09:45:06;;;;;;;;;9.50;6.25;;;;;10.77;82.25;100192.69;5034568;28;8836;-59
2023/01/05 09:47:35;;;;;;;;;5.50;4.00;;;;;10.81;82.30;100186.13;5033902;28;8861;-58
2023/01/05 09:50:03;;;;;;;;;9.50;8.00;;;;;10.85;82.34;100196.44;5034974;28;8840;-58
2023/01/05 09:52:30;;;;;;;;;8.50;8.00;;;;;10.88;82.55;100198.88;5049806;28;8941;-57
2023/01/05 09:55:04;;;;;;;;;6.00;4.00;;;;;10.90;82.10;100199.59;5044547;28;8841;-59
2023/01/05 09:57:33;;;;;;;;;7.50;6.50;;;;;10.91;82.12;100206.63;5034722;28;8824;-59
2023/01/05 10:00:01;;;;;;;;;9.50;8.25;;;;;10.90;81.98;100220.91;5035462;28;8851;-59
2023/01/05 10:02:29;;;;;;;;;6.50;6.50;;;;;10.91;82.10;100216.44;5035250;28;8821;-59
2023/01/05 10:04:57;;;;;;;;;4.50;3.50;;;;;10.91;82.16;100211.13;5033287;28;8977;-59
2023/01/05 10:07:25;;;;;;;;;6.75;6.50;;;;;10.89;82.13;100221.88;5034820;28;8991;-59
2023/01/05 10:09:53;;;;;;;;;11.00;9.50;;;;;10.90;82.43;100228.91;5034809;28;8840;-60
2023/01/05 10:15:07;;;;;;;;;8.50;7.50;;;;;10.95;82.25;100224.09;5034269;28;8860;-59
2023/01/05 10:17:35;;;;;;;;;6.50;6.50;;;;;10.96;81.96;100215.13;5034465;28;8849;-59
2023/01/05 10:20:10;;;;;;;;;10.00;9.00;;;;;11.00;82.48;100219.22;5033718;28;8913;-59
2023/01/05 10:22:39;;;;;;;;;14.50;11.00;;;;;11.03;81.88;100221.69;5049268;28;8830;-59
2023/01/05 10:25:07;;;;;;;;;11.25;11.25;;;;;11.05;82.16;100217.06;5053336;28;8850;-58
2023/01/05 10:27:34;;;;;;;;;9.25;8.50;;;;;11.06;82.02;100224.09;5053534;28;8977;-59
2023/01/05 10:30:03;;;;;;;;;9.67;9.00;;;;;11.07;81.76;100216.97;5053416;28;8834;-59
2023/01/05 10:32:31;;;;;;;;;12.00;9.50;;;;;11.08;82.13;100224.81;5053931;28;8830;-58
2023/01/05 10:35:16;;;;;;;;;10.50;10.50;;;;;11.11;81.58;100229.94;5050874;28;8893;-59
2023/01/05 10:38:04;;;;;;;;;7.00;6.50;;;;;11.17;81.81;100228.59;5028732;28;8833;-58
2023/01/05 10:40:32;;;;;;;;;8.00;8.00;;;;;11.22;82.10;100243.25;5033672;28;8844;-58
2023/01/05 10:43:00;;;;;;;;;10.00;8.50;;;;;11.23;81.99;100239.63;5034054;28;8845;-59
2023/01/05 10:45:28;;;;;;;;;13.00;12.25;;;;;11.24;81.94;100243.16;5033894;28;8840;-58
2023/01/05 10:47:56;;;;;;;;;13.25;10.75;;;;;11.23;81.69;100252.94;5032136;28;8980;-59
2023/01/05 10:50:24;;;;;;;;;9.00;9.00;;;;;11.20;82.24;100239.88;5033388;28;8840;-59
2023/01/05 10:56:03;;;;;;;;;11.50;9.00;;;;;11.14;81.45;100235.00;5053698;28;8900;-58
2023/01/05 10:58:31;;;;;;;;;10.00;9.00;;;;;11.13;82.05;100228.00;5040595;28;8926;-58
2023/01/05 11:00:59;;;;;;;;;9.00;8.50;;;;;11.18;81.97;100247.16;5031809;28;8844;-58
2023/01/05 11:03:27;;;;;;;;;9.00;9.00;;;;;11.22;82.08;100245.94;5031744;28;8856;-57
2023/01/05 11:06:15;;;;;;;;;4.50;3.25;;;;;11.32;81.66;100236.28;5032065;28;8864;-59
2023/01/05 11:08:44;;;;;;;;;4.25;4.25;;;;;11.44;81.58;100245.13;5033259;28;8844;-58
2023/01/05 11:11:12;;;;;;;;;12.75;12.00;;;;;11.47;81.41;100248.41;5033656;28;8853;-59
2023/01/05 11:13:40;;;;;;;;;12.00;9.00;;;;;11.53;81.54;100247.06;5033978;28;8851;-58
2023/01/05 11:16:09;;;;;;;;;11.75;8.00;;;;;11.56;80.82;100246.81;5035927;28;8837;-58
2023/01/05 11:18:37;;;;;;;;;6.25;5.00;;;;;11.55;80.90;100254.00;5037657;28;8844;-59
2023/01/05 11:21:05;;;;;;;;;5.50;5.50;;;;;11.53;81.33;100247.91;5037857;28;8829;-59
2023/01/05 11:23:33;;;;;;;;;4.00;3.50;;;;;11.52;81.35;100248.03;5036362;28;8917;-57
2023/01/05 11:26:01;;;;;;;;;7.50;6.00;;;;;11.49;81.14;100245.59;5035913;28;8825;-58
2023/01/05 11:28:29;;;;;;;;;9.75;7.00;;;;;11.48;81.18;100243.91;5036281;28;8940;-58
2023/01/05 11:30:57;;;;;;;;;11.00;9.00;;;;;11.46;81.31;100253.84;5035863;28;9694;-58
2023/01/05 11:33:27;;;;;;;;;9.00;8.50;;;;;11.44;81.33;100248.63;5034519;28;8883;-59
2023/01/05 11:35:55;;;;;;;;;7.00;6.50;;;;;11.44;81.52;100255.78;5033926;28;8845;-56
2023/01/05 11:38:24;;;;;;;;;12.00;11.50;;;;;11.43;81.13;100252.25;5034219;28;8931;-58
2023/01/05 11:40:55;;;;;;;;;6.50;6.25;;;;;11.46;80.98;100243.19;5034374;28;8891;-58
2023/01/05 11:43:23;;;;;;;;;12.25;9.25;;;;;11.46;80.93;100240.53;5034278;28;8833;-58
2023/01/05 11:45:51;;;;;;;;;7.00;7.00;;;;;11.48;81.33;100239.44;5034897;28;8845;-58
2023/01/05 11:48:19;;;;;;;;;6.75;6.00;;;;;11.49;81.22;100249.13;5036369;28;8860;-58
2023/01/05 11:50:47;;;;;;;;;7.00;6.25;;;;;11.49;81.42;100249.13;5036621;28;8918;-58
2023/01/05 11:53:15;;;;;;;;;2.50;2.00;;;;;11.52;80.71;100256.03;5036634;28;8847;-60
2023/01/05 11:55:44;;;;;;;;;6.00;5.50;;;;;11.54;80.63;100256.75;5035201;28;8843;-59
2023/01/05 11:58:13;;;;;;;;;4.00;4.00;;;;;11.56;80.76;100250.34;5035131;28;8854;-59
2023/01/05 12:00:41;;;;;;;;;7.00;6.25;;;;;11.56;81.24;100245.00;5034097;28;8868;-59
2023/01/05 12:03:09;;;;;;;;;5.00;5.00;;;;;11.59;80.75;100242.13;5034650;28;8844;-59
2023/01/05 12:05:37;;;;;;;;;7.00;6.50;;;;;11.65;81.00;100244.31;5035394;28;8855;-59
2023/01/05 12:08:06;;;;;;;;;1.00;1.00;;;;;11.72;80.94;100242.00;5035107;28;8886;-59
2023/01/05 12:10:34;;;;;;;;;7.00;7.00;;;;;11.73;80.58;100244.56;5035573;28;8859;-57
2023/01/05 12:13:02;;;;;;;;;10.00;6.75;;;;;11.74;80.27;100240.91;5035654;28;8852;-61
2023/01/05 12:15:30;;;;;;;;;7.00;7.00;;;;;11.83;80.50;100250.00;5036213;28;8855;-57
2023/01/05 12:17:58;;;;;;;;;3.50;3.50;;;;;11.88;79.87;100247.81;5035875;28;8841;-58
2023/01/05 12:20:26;;;;;;;;;6.75;5.50;;;;;12.01;80.10;100241.38;5034770;28;8844;-59
2023/01/05 12:22:55;;;;;;;;;7.00;6.75;;;;;12.12;79.55;100252.03;5034390;28;8848;-59